Stanley, VA

12:30 PM EDT on July 28, 2015 (GMT -0400)
Stanley Weather Pod | | Change Station
CLOSE
Current Station
Personal Weather Station
Location: Stanley, VA
Elevation: 1100 ft
Nearby Weather Stations

Elev 1100 ft 38.57 °N, 78.53 °W | Updated 19 seconds ago

Mostly Cloudy
Mostly Cloudy
83.5 °F
Feels Like 90 °F
N
0.0
Wind Variable Wind from NNE
Gusts 4.0 mph

Today
High -- | Low -- °F
--% Chance of Precip.
Yesterday
High -- | Low -- °F
Precip. -- in
6:12 AM 8:28 PM
Waxing Gibbous, 90% visible
Pressure 30.04 in
Visibility 10.0 miles
Clouds Mostly Cloudy 2100 ft
Mostly Cloudy 4000 ft
Overcast 4700 ft
Heat Index 90 °F
Dew Point 74 °F
Humidity 73%
Rainfall 0.00 in
Snow Depth Not available.
UV 3 out of 12
Pollen 4.60 out of 12
Air Quality Not available.
Flu Activity Not available.
METAR KLUA 281615Z AUTO 04003KT 10SM BKN021 BKN040 OVC047 29/23 A3004 RMK AO2

More Conditions Fewer Conditions

Pressure 30.04 in
Visibility 10.0 miles
Clouds Mostly Cloudy 2100 ft
Mostly Cloudy 4000 ft
Overcast 4700 ft
Heat Index 90 °F
Dew Point 74 °F
Humidity 73%
Rainfall 0.00 in
Snow Depth Not available.
UV 3 out of 12
Pollen 4.60 out of 12
Air Quality Not available.
Flu Activity Not available.
METAR KLUA 281615Z AUTO 04003KT 10SM BKN021 BKN040 OVC047 29/23 A3004 RMK AO2

More Conditions Fewer Conditions

10-Day Weather Forecast

×

Almanac

Astronomy

Jul. 28, 2015 Rise Set
Actual Time
Civil Twilight
Nautical Twilight
Astronomical Twilight
Moon
Length of Visible Light
Length of Day
Tomorrow will be .
, % of the Moon is Illuminated

Today's Extremes

State Highs State Lows

Community

WunderPhotos

Upload Photos

1,841,886 photos uploaded!

WunderBlogs® & News

Nearby

Air Quality

  Air Quality AQ Index Pollutant
Not available.

Snow Depth

Station Depth Elevation

Earthquake Activity

City Distance Mag. Time & Date
Minimum magnitude displayed is 2.5.

Coastal Water Temperatures

Place Temperature

Stations

Nearby Weather Stations

Station Location Temp. Windchill Dew Point Humidity Wind Precip. Elev Updated Type